createdAt,value
2018-07-15T00:02:13.192Z,68.50
2018-07-15T00:05:38.019Z,69.20
2018-07-15T00:09:03.098Z,70.30
2018-07-15T00:12:27.073Z,70.10
2018-07-15T00:15:51.144Z,70.80
2018-07-15T00:19:15.943Z,70.80
2018-07-15T00:22:39.888Z,71.10
2018-07-15T00:26:03.731Z,72.00
2018-07-15T00:29:27.723Z,71.80
2018-07-15T00:32:51.651Z,72.20
2018-07-15T00:36:15.512Z,72.10
2018-07-15T00:39:39.484Z,72.30
2018-07-15T00:43:04.111Z,72.20
2018-07-15T00:46:28.866Z,72.70
2018-07-15T00:53:16.338Z,72.70
2018-07-15T00:56:40.312Z,72.70
2018-07-15T01:00:04.326Z,72.70
2018-07-15T01:03:28.350Z,72.70
2018-07-15T01:07:02.357Z,72.60
2018-07-15T01:13:50.433Z,72.70
2018-07-15T01:17:14.328Z,74.20
2018-07-15T01:20:38.286Z,73.70
2018-07-15T01:24:02.319Z,73.80
2018-07-15T01:27:26.227Z,74.10
2018-07-15T01:30:50.235Z,74.80
2018-07-15T01:34:14.185Z,75.20
2018-07-15T01:37:38.107Z,76.20
2018-07-15T01:41:02.006Z,77.30
2018-07-15T01:44:26.749Z,78.30
2018-07-15T01:47:51.619Z,79.00
2018-07-15T01:51:16.421Z,78.70
2018-07-15T01:54:41.240Z,78.50
2018-07-15T01:58:06.128Z,78.20
2018-07-15T02:01:30.817Z,77.70
2018-07-15T02:04:55.644Z,77.10
2018-07-15T02:08:20.438Z,76.70
2018-07-15T02:15:09.596Z,74.50
2018-07-15T02:18:34.325Z,75.00
2018-07-15T02:21:59.135Z,74.80
2018-07-15T02:25:23.887Z,75.20
2018-07-15T02:28:48.848Z,74.50
2018-07-15T02:32:13.676Z,74.20
2018-07-15T02:35:38.400Z,73.20
2018-07-15T02:39:03.284Z,73.40
2018-07-15T02:42:28.027Z,73.10
2018-07-15T02:45:52.745Z,72.30
2018-07-15T02:52:41.893Z,71.50
2018-07-15T02:56:06.992Z,71.40
2018-07-15T02:59:31.623Z,71.50
2018-07-15T03:02:56.501Z,71.80
2018-07-15T03:06:21.129Z,71.60
2018-07-15T03:09:45.788Z,71.20
2018-07-15T03:13:10.475Z,71.10
2018-07-15T03:16:35.268Z,71.50
2018-07-15T03:19:59.922Z,71.70
2018-07-15T03:23:24.601Z,71.70
2018-07-15T03:26:49.253Z,70.80
2018-07-15T03:30:13.960Z,73.30
2018-07-15T03:33:38.777Z,73.90
2018-07-15T03:37:03.538Z,75.50
2018-07-15T03:40:28.209Z,76.50
2018-07-15T03:47:17.212Z,76.70
2018-07-15T03:50:41.893Z,76.30
2018-07-15T03:54:06.569Z,76.40
2018-07-15T03:57:31.265Z,75.80
2018-07-15T04:00:56.022Z,76.10
2018-07-15T04:04:20.763Z,75.00
2018-07-15T04:07:45.471Z,75.30
2018-07-15T04:11:10.204Z,74.80
2018-07-15T04:14:34.869Z,74.90
2018-07-15T04:18:04.482Z,75.50
2018-07-15T04:21:29.170Z,75.50
2018-07-15T04:24:53.801Z,75.60
2018-07-15T04:28:18.470Z,75.50
2018-07-15T04:31:43.144Z,76.10
2018-07-15T04:38:32.223Z,75.10
2018-07-15T04:41:56.946Z,76.10
2018-07-15T04:48:46.140Z,75.50
2018-07-15T04:52:10.800Z,76.50
2018-07-15T04:55:35.708Z,75.60
2018-07-15T04:59:00.418Z,74.90
2018-07-15T05:02:25.085Z,75.40
2018-07-15T05:05:49.800Z,75.50
2018-07-15T05:09:14.482Z,75.30
2018-07-15T05:12:39.195Z,75.90
2018-07-15T05:16:03.978Z,75.20
2018-07-15T05:19:28.782Z,75.60
2018-07-15T05:22:53.539Z,75.30
2018-07-15T05:26:18.308Z,75.60
2018-07-15T05:29:42.975Z,75.70
2018-07-15T05:33:07.731Z,76.30
2018-07-15T05:36:32.459Z,76.30
2018-07-15T05:39:57.252Z,75.90
2018-07-15T05:43:21.951Z,75.30
2018-07-15T05:46:46.721Z,75.80
2018-07-15T05:50:11.513Z,74.20
2018-07-15T05:53:36.191Z,75.80
2018-07-15T05:57:00.883Z,74.70
2018-07-15T06:03:50.127Z,74.30
2018-07-15T06:07:14.927Z,75.00
2018-07-15T06:14:04.119Z,73.20
2018-07-15T06:17:28.818Z,72.00
2018-07-15T06:20:53.462Z,73.30
2018-07-15T06:27:42.552Z,72.90
2018-07-15T06:31:07.326Z,72.10
2018-07-15T06:34:31.986Z,72.30
2018-07-15T06:37:56.637Z,72.10
2018-07-15T06:41:21.259Z,71.20
2018-07-15T06:44:46.039Z,71.20
2018-07-15T06:48:10.754Z,70.90
2018-07-15T06:51:35.513Z,70.70
2018-07-15T06:55:00.210Z,70.50
2018-07-15T06:58:24.922Z,69.80
2018-07-15T07:01:50.017Z,70.10
2018-07-15T07:05:14.860Z,69.10
2018-07-15T07:08:39.570Z,70.30
2018-07-15T07:12:04.465Z,71.00
2018-07-15T07:15:29.395Z,70.80
2018-07-15T07:18:57.448Z,69.10
2018-07-15T07:22:38.242Z,68.70
2018-07-15T07:26:03.327Z,68.40
2018-07-15T07:29:28.071Z,68.70
2018-07-15T07:32:52.840Z,67.10
2018-07-15T07:36:17.555Z,66.90
2018-07-15T07:39:43.008Z,66.20
2018-07-15T07:43:07.792Z,65.60
2018-07-15T07:46:32.485Z,65.50
2018-07-15T07:49:57.210Z,65.20
2018-07-15T07:53:21.962Z,65.90
2018-07-15T07:56:46.641Z,64.90
2018-07-15T08:00:11.327Z,63.70
2018-07-15T08:03:36.156Z,63.70
2018-07-15T08:07:00.874Z,63.80
2018-07-15T08:10:25.559Z,62.30
2018-07-15T08:13:50.789Z,61.40
2018-07-15T08:20:40.748Z,60.70
2018-07-15T08:24:05.569Z,60.60
2018-07-15T08:31:30.482Z,59.10
2018-07-15T08:34:55.323Z,59.20
2018-07-15T08:38:20.026Z,57.70
2018-07-15T08:41:44.721Z,58.00
2018-07-15T08:45:09.419Z,58.70
2018-07-15T08:48:34.157Z,58.30
2018-07-15T08:51:58.860Z,58.80
2018-07-15T08:55:24.233Z,57.00
2018-07-15T08:58:50.365Z,57.20
2018-07-15T09:05:41.845Z,56.10
2018-07-15T09:09:07.115Z,56.80
2018-07-15T09:12:31.832Z,56.10
2018-07-15T09:15:56.520Z,55.60
2018-07-15T09:19:21.185Z,56.20
2018-07-15T09:22:45.903Z,54.40
2018-07-15T09:26:10.671Z,54.60
2018-07-15T09:29:35.422Z,53.90
2018-07-15T09:33:00.222Z,54.00
2018-07-15T09:36:25.141Z,53.70
2018-07-15T09:39:49.830Z,53.50
2018-07-15T09:43:14.515Z,53.00
2018-07-15T09:46:39.914Z,53.10
2018-07-15T09:50:04.698Z,53.10
2018-07-15T09:53:29.347Z,53.00
2018-07-15T09:56:54.047Z,53.50
2018-07-15T10:03:48.549Z,51.50
2018-07-15T10:07:13.261Z,52.10
2018-07-15T10:14:02.397Z,50.70
2018-07-15T10:17:27.119Z,51.70
2018-07-15T10:20:52.047Z,51.40
2018-07-15T10:24:17.021Z,52.00
2018-07-15T10:31:06.732Z,50.60
2018-07-15T10:34:32.265Z,50.40
2018-07-15T10:37:57.351Z,50.30
2018-07-15T10:41:24.420Z,51.00
2018-07-15T10:44:49.515Z,50.00
2018-07-15T10:48:16.169Z,49.20
2018-07-15T10:51:41.145Z,49.60
2018-07-15T10:55:07.088Z,49.00
2018-07-15T10:58:33.038Z,46.30
2018-07-15T11:02:00.708Z,46.00
2018-07-15T11:05:26.019Z,44.70
2018-07-15T11:12:15.327Z,43.90
2018-07-15T11:15:40.008Z,42.20
2018-07-15T11:19:04.760Z,44.00
2018-07-15T11:36:07.785Z,41.20
2018-07-15T11:39:34.452Z,41.00
2018-07-15T11:42:59.764Z,40.50
2018-07-15T11:49:49.404Z,40.20
2018-07-15T11:53:14.104Z,39.80
2018-07-15T11:56:38.901Z,38.90
2018-07-15T12:00:03.670Z,37.90
2018-07-15T12:03:28.322Z,36.00
2018-07-15T12:06:53.274Z,38.00
2018-07-15T12:10:18.280Z,37.50
2018-07-15T12:13:44.158Z,38.40
2018-07-15T12:17:09.104Z,40.00
2018-07-15T12:20:33.884Z,41.20
2018-07-15T12:23:58.622Z,40.80
2018-07-15T12:27:23.330Z,39.20
2018-07-15T12:30:48.172Z,40.10
2018-07-15T12:34:13.083Z,38.40
2018-07-15T12:37:38.035Z,38.80
2018-07-15T12:41:02.746Z,38.60
2018-07-15T12:44:28.848Z,37.80
2018-07-15T12:47:53.890Z,39.40
2018-07-15T12:51:18.750Z,40.10
2018-07-15T12:54:43.594Z,40.20
2018-07-15T12:58:08.371Z,40.90
2018-07-15T13:01:33.092Z,38.60
2018-07-15T13:04:58.143Z,38.30
2018-07-15T13:08:23.005Z,37.30
2018-07-15T13:11:47.862Z,37.30
2018-07-15T13:22:01.760Z,36.80
2018-07-15T13:25:26.521Z,37.50
2018-07-15T13:28:51.365Z,38.80
2018-07-15T13:32:16.124Z,37.00
2018-07-15T13:35:40.857Z,38.30
2018-07-15T13:39:07.429Z,37.80
2018-07-15T13:45:57.056Z,37.10
2018-07-15T13:49:21.840Z,38.40
2018-07-15T13:52:46.565Z,38.40
2018-07-15T13:59:35.807Z,36.60
2018-07-15T14:03:00.750Z,37.60
2018-07-15T14:06:25.394Z,38.20
2018-07-15T14:09:50.072Z,37.50
2018-07-15T14:13:14.732Z,38.80
2018-07-15T14:16:39.451Z,38.20
2018-07-15T14:20:05.424Z,37.10
2018-07-15T14:26:54.776Z,35.70
2018-07-15T14:30:19.707Z,35.40
2018-07-15T14:33:44.614Z,35.00
2018-07-15T14:37:09.373Z,35.60
2018-07-15T14:40:35.009Z,36.00
2018-07-15T14:43:59.787Z,36.10
2018-07-15T14:47:24.551Z,35.50
2018-07-15T14:50:49.255Z,35.60
2018-07-15T14:54:14.043Z,36.00
2018-07-15T14:57:38.790Z,37.50
2018-07-15T15:01:03.435Z,38.30
2018-07-15T15:04:28.120Z,39.00
2018-07-15T15:07:52.836Z,41.70
2018-07-15T15:11:17.630Z,42.60
2018-07-15T15:24:55.946Z,61.00
2018-07-15T15:28:20.675Z,64.50
2018-07-15T15:31:45.476Z,65.60
2018-07-15T15:38:34.699Z,64.00
2018-07-15T15:41:59.495Z,66.60
2018-07-15T15:45:24.218Z,62.60
2018-07-15T15:48:48.981Z,61.50
2018-07-15T15:52:13.695Z,59.80
2018-07-15T15:55:38.605Z,58.60
2018-07-15T16:02:28.005Z,56.60
2018-07-15T16:09:17.414Z,53.30
2018-07-15T16:12:42.062Z,53.40
2018-07-15T16:16:06.711Z,52.90
2018-07-15T16:22:55.684Z,52.50
2018-07-15T16:26:20.663Z,54.90
2018-07-15T16:29:45.341Z,53.80
2018-07-15T16:33:10.189Z,54.80
2018-07-15T16:36:35.013Z,55.40
2018-07-15T16:46:48.676Z,59.50
2018-07-15T16:50:13.388Z,58.60
2018-07-15T17:00:27.657Z,61.20
2018-07-15T17:03:52.440Z,61.40
2018-07-15T17:07:17.866Z,62.20
2018-07-15T17:10:42.725Z,64.40
2018-07-15T17:14:07.527Z,64.10
2018-07-15T17:20:56.494Z,67.30
2018-07-15T17:24:21.179Z,68.00
2018-07-15T17:27:45.890Z,67.20
2018-07-15T17:31:10.770Z,67.20
2018-07-15T17:34:35.464Z,67.50
2018-07-15T17:38:00.149Z,68.20
2018-07-15T17:41:24.878Z,68.30
2018-07-15T17:44:49.529Z,67.60
2018-07-15T17:48:14.346Z,68.60
2018-07-15T17:51:39.063Z,68.20
2018-07-15T17:55:03.825Z,68.90
2018-07-15T17:58:28.666Z,70.00
2018-07-15T18:01:53.315Z,69.00
2018-07-15T18:05:17.969Z,69.70
2018-07-15T18:08:42.839Z,69.10
2018-07-15T18:12:07.633Z,69.10
2018-07-15T18:15:32.329Z,69.60
2018-07-15T18:18:57.202Z,70.20
2018-07-15T18:22:21.990Z,70.00
2018-07-15T18:25:53.315Z,69.80
2018-07-15T18:32:42.882Z,69.60
2018-07-15T18:36:07.799Z,69.90
2018-07-15T18:39:32.603Z,69.40
2018-07-15T18:42:57.308Z,67.70
2018-07-15T18:46:22.300Z,66.30
2018-07-15T18:49:47.104Z,66.50
2018-07-15T18:53:11.953Z,67.10
2018-07-15T18:56:36.924Z,67.50
2018-07-15T19:00:01.721Z,68.80
2018-07-15T19:03:26.399Z,68.80
2018-07-15T19:06:51.168Z,69.30
2018-07-15T19:10:15.859Z,69.10
2018-07-15T19:13:40.932Z,69.70
2018-07-15T19:17:05.831Z,70.50
2018-07-15T19:20:30.658Z,71.10
2018-07-15T19:23:56.058Z,71.50
2018-07-15T19:27:20.820Z,72.00
2018-07-15T19:30:45.564Z,71.20
2018-07-15T19:40:59.003Z,71.30
2018-07-15T19:44:23.963Z,71.60
2018-07-15T19:47:48.729Z,72.20
2018-07-15T19:51:13.430Z,73.40
2018-07-15T19:54:38.112Z,73.60
2018-07-15T19:58:02.810Z,72.90
2018-07-15T20:01:27.779Z,70.90
2018-07-15T20:04:52.462Z,69.60
2018-07-15T20:08:18.165Z,71.50
2018-07-15T20:11:42.923Z,71.00
2018-07-15T20:15:08.673Z,69.80
2018-07-15T20:18:33.455Z,69.20
2018-07-15T20:25:23.600Z,70.70
2018-07-15T20:28:48.263Z,70.60
2018-07-15T20:32:13.565Z,71.40
2018-07-15T20:35:38.897Z,72.10
2018-07-15T20:39:05.551Z,72.10
2018-07-15T20:42:31.119Z,72.90
2018-07-15T20:45:56.646Z,74.00
2018-07-15T20:49:21.843Z,74.30
2018-07-15T20:56:13.071Z,75.00
2018-07-15T20:59:38.363Z,75.90
2018-07-15T21:03:03.684Z,76.50
2018-07-15T21:06:31.183Z,76.90
2018-07-15T21:09:57.091Z,77.00
2018-07-15T21:13:22.241Z,76.20
2018-07-15T21:16:47.482Z,75.90
2018-07-15T21:20:12.641Z,76.20
2018-07-15T21:23:38.329Z,76.00
2018-07-15T21:27:03.546Z,76.20
2018-07-15T21:30:28.880Z,76.20
2018-07-15T21:33:57.424Z,76.50
2018-07-15T21:37:22.495Z,76.00
2018-07-15T21:40:47.543Z,75.70
2018-07-15T21:44:12.722Z,75.40
2018-07-15T21:47:37.902Z,75.00
2018-07-15T21:57:56.092Z,74.80
2018-07-15T22:01:21.470Z,75.90
2018-07-15T22:04:46.937Z,76.40
2018-07-15T22:08:28.927Z,75.80
2018-07-15T22:11:54.263Z,75.60
2018-07-15T22:15:19.309Z,77.10
2018-07-15T22:18:44.057Z,78.00
2018-07-15T22:22:09.023Z,79.60
2018-07-15T22:25:33.781Z,80.40
2018-07-15T22:30:27.555Z,80.70
2018-07-15T22:33:52.274Z,80.60
2018-07-15T22:40:41.440Z,81.20
2018-07-15T22:47:30.837Z,81.00
2018-07-15T22:50:55.669Z,80.90
2018-07-15T22:54:20.522Z,80.90
2018-07-15T22:57:45.270Z,80.70
2018-07-15T23:01:10.154Z,80.90
2018-07-15T23:05:54.370Z,81.00
2018-07-15T23:09:20.445Z,81.40
2018-07-15T23:12:45.547Z,81.70
2018-07-15T23:16:11.156Z,81.40
2018-07-15T23:19:36.486Z,81.10
2018-07-15T23:23:02.524Z,81.70
2018-07-15T23:26:29.109Z,81.20
2018-07-15T23:29:54.184Z,81.60
2018-07-15T23:33:19.237Z,81.60
2018-07-15T23:36:44.139Z,82.00
2018-07-15T23:40:09.115Z,81.20
2018-07-15T23:46:58.805Z,80.90
2018-07-15T23:50:24.093Z,81.40
2018-07-15T23:53:49.944Z,81.80
2018-07-15T23:57:15.014Z,81.00
